Terminal Aerodrome Forecast
Issued by NWS Springfield, MO

Home | Current Version | Previous Version | Text Only | Print | Product List | Glossary On
Versions: 1 2 3 4 5 6 7 8 9 10 11 12 13 14 15 16 17 18 19 20 21 22 23 24 25 26 27 28 29
561
FTUS43 KSGF 261706 AAD
TAFSGF
TAF AMD
KSGF 261706Z 2617/2712 32012KT 6SM -SHRA BR VCTS OVC004CB
     FM262000 33012KT 4SM -SHRA BR OVC006
     FM270500 29006KT P6SM BKN008
     FM270900 28005KT P6SM SKC=

USA.gov is the U.S. government's official web portal to all federal, state and local government web resources and services.